EKOD/ODE METAR and TAF weather

Enter ICAO airport designator
Station Type Date Time Source
EKOD METAR 2022/06/26 06:50 UTC NOAA

EKOD 260650Z 11004KT 070V160 CAVOK 21/19 Q1013


Station Type Date Time Source
EKOD Decoded METAR 2022/06/26 06:50 UTC NOAA

Odense / Beldringe, Denmark (EKOD) 55-29N 010-20E 17M
Jun 26, 2022 - 02:50 AM EDT / 2022.06.26 0650 UTC
Wind: from the ESE (110 degrees) at 5 MPH (4 KT) (direction variable):0
Visibility: greater than 7 mile(s):0
Temperature: 69 F (21 C)
Dew Point: 66 F (19 C)
Relative Humidity: 88%
Pressure (altimeter): 29.91 in. Hg (1013 hPa)
ob: EKOD 260650Z 11004KT 070V160 CAVOK 21/19 Q1013
cycle: 7

Station Type Date Time Source
EKOD TAF 2015/04/20 17:00 UTC NOAA

TAF
AMD EKOD 201701Z 2017/2018 CNL

Example: see airport list